createdAt,value
2022-09-26T00:00:53.604Z,49.90
2022-09-26T00:04:08.166Z,49.90
2022-09-26T00:07:10.049Z,49.90
2022-09-26T00:10:11.747Z,49.90
2022-09-26T00:13:13.435Z,49.90
2022-09-26T00:16:15.447Z,49.90
2022-09-26T00:19:18.024Z,49.80
2022-09-26T00:22:19.785Z,49.80
2022-09-26T00:25:21.471Z,49.80
2022-09-26T00:28:23.197Z,49.80
2022-09-26T00:31:29.049Z,49.70
2022-09-26T00:34:30.792Z,49.70
2022-09-26T00:37:32.490Z,49.80
2022-09-26T00:40:34.439Z,49.70
2022-09-26T00:43:45.912Z,49.80
2022-09-26T00:46:48.914Z,49.80
2022-09-26T00:50:05.653Z,49.70
2022-09-26T00:53:15.379Z,49.70
2022-09-26T00:56:26.096Z,49.70
2022-09-26T00:59:37.310Z,49.60
2022-09-26T01:02:39.808Z,49.60
2022-09-26T01:05:42.787Z,49.50
2022-09-26T01:08:52.389Z,49.60
2022-09-26T01:11:55.291Z,49.50
2022-09-26T01:14:58.061Z,49.50
2022-09-26T01:17:59.926Z,49.50
2022-09-26T01:21:35.033Z,49.50
2022-09-26T01:25:15.008Z,49.40
2022-09-26T01:28:43.963Z,49.40
2022-09-26T01:32:13.263Z,49.40
2022-09-26T01:35:18.108Z,49.50
2022-09-26T01:38:22.550Z,49.40
2022-09-26T01:41:54.064Z,49.40
2022-09-26T01:45:28.347Z,49.40
2022-09-26T01:48:36.128Z,49.40
2022-09-26T01:51:53.566Z,49.30
2022-09-26T01:55:17.346Z,49.30
2022-09-26T01:58:32.384Z,49.30
2022-09-26T02:01:39.629Z,49.30
2022-09-26T02:04:44.424Z,49.30
2022-09-26T02:07:53.276Z,49.30
2022-09-26T02:11:02.076Z,49.20
2022-09-26T02:14:11.767Z,49.20
2022-09-26T02:17:18.976Z,49.20
2022-09-26T02:20:31.396Z,49.20
2022-09-26T02:23:33.132Z,49.20
2022-09-26T02:26:34.877Z,49.20
2022-09-26T02:29:36.681Z,49.20
2022-09-26T02:32:40.387Z,49.10
2022-09-26T02:35:55.598Z,49.10
2022-09-26T02:39:00.016Z,49.10
2022-09-26T02:42:35.120Z,49.10
2022-09-26T02:46:01.124Z,49.10
2022-09-26T02:49:24.575Z,49.10
2022-09-26T02:52:46.179Z,49.10
2022-09-26T02:56:09.245Z,49.10
2022-09-26T02:59:42.284Z,49.10
2022-09-26T03:02:53.390Z,49.10
2022-09-26T03:05:59.141Z,49.10
2022-09-26T03:09:02.447Z,49.10
2022-09-26T03:12:07.607Z,49.10
2022-09-26T03:15:10.382Z,49.10
2022-09-26T03:18:16.838Z,49.00
2022-09-26T03:21:19.083Z,49.10
2022-09-26T03:24:20.903Z,49.00
2022-09-26T03:27:23.427Z,49.00
2022-09-26T03:30:25.267Z,49.00
2022-09-26T03:33:48.067Z,49.00
2022-09-26T03:36:50.006Z,49.10
2022-09-26T03:39:52.747Z,49.00
2022-09-26T03:43:03.120Z,49.00
2022-09-26T03:46:06.601Z,49.00
2022-09-26T03:49:12.005Z,49.00
2022-09-26T03:52:14.225Z,49.00
2022-09-26T03:55:17.705Z,48.90
2022-09-26T03:58:20.171Z,48.90
2022-09-26T04:01:22.674Z,48.90
2022-09-26T04:04:24.582Z,48.90
2022-09-26T04:07:28.228Z,48.90
2022-09-26T04:10:30.032Z,48.90
2022-09-26T04:13:50.816Z,48.90
2022-09-26T04:16:54.454Z,48.90
2022-09-26T04:20:22.708Z,48.90
2022-09-26T04:23:29.070Z,49.00
2022-09-26T04:26:30.859Z,49.00
2022-09-26T04:29:32.606Z,49.00
2022-09-26T04:32:46.752Z,49.00
2022-09-26T04:36:09.961Z,49.00
2022-09-26T04:39:12.089Z,49.20
2022-09-26T04:42:13.840Z,49.20
2022-09-26T04:45:16.224Z,49.10
2022-09-26T04:48:17.997Z,49.10
2022-09-26T04:51:37.453Z,49.10
2022-09-26T04:54:39.597Z,49.70
2022-09-26T04:57:41.320Z,49.20
2022-09-26T05:00:49.663Z,49.20
2022-09-26T05:04:01.150Z,49.20
2022-09-26T05:07:04.088Z,49.20
2022-09-26T05:10:10.834Z,49.30
2022-09-26T05:13:19.440Z,49.30
2022-09-26T05:16:21.571Z,49.30
2022-09-26T05:19:26.746Z,49.30
2022-09-26T05:23:06.025Z,49.30
2022-09-26T05:26:31.774Z,49.20
2022-09-26T05:29:33.734Z,49.30
2022-09-26T05:32:39.858Z,49.30
2022-09-26T05:35:41.727Z,49.30
2022-09-26T05:38:43.796Z,49.30
2022-09-26T05:41:46.001Z,49.30
2022-09-26T05:44:47.947Z,49.30
2022-09-26T05:47:49.973Z,49.30
2022-09-26T05:50:52.439Z,49.30
2022-09-26T05:53:54.210Z,49.30
2022-09-26T05:56:58.352Z,49.30
2022-09-26T06:00:21.001Z,49.20
2022-09-26T06:03:22.961Z,49.20
2022-09-26T06:06:40.130Z,49.30
2022-09-26T06:09:46.473Z,49.20
2022-09-26T06:13:08.587Z,49.30
2022-09-26T06:16:20.487Z,49.20
2022-09-26T06:19:23.342Z,49.20
2022-09-26T06:22:26.143Z,49.30
2022-09-26T06:25:29.225Z,49.30
2022-09-26T06:28:32.967Z,49.20
2022-09-26T06:31:34.828Z,49.10
2022-09-26T06:34:42.557Z,49.10
2022-09-26T06:37:59.578Z,49.20
2022-09-26T06:41:01.860Z,49.00
2022-09-26T06:44:04.138Z,49.00
2022-09-26T06:47:27.084Z,49.10
2022-09-26T06:50:44.269Z,49.10
2022-09-26T06:53:46.046Z,49.00
2022-09-26T06:56:51.418Z,49.00
2022-09-26T06:59:53.387Z,49.20
2022-09-26T07:03:17.701Z,49.10
2022-09-26T07:06:25.145Z,49.20
2022-09-26T07:09:26.898Z,49.20
2022-09-26T07:12:43.604Z,49.20
2022-09-26T07:15:47.218Z,49.20
2022-09-26T07:19:04.730Z,49.20
2022-09-26T07:22:25.141Z,49.20
2022-09-26T07:25:31.676Z,49.20
2022-09-26T07:28:34.754Z,49.30
2022-09-26T07:31:37.077Z,49.30
2022-09-26T07:34:42.804Z,49.20
2022-09-26T07:37:50.802Z,49.20
2022-09-26T07:40:54.749Z,49.10
2022-09-26T07:44:53.414Z,49.20
2022-09-26T07:47:38.860Z,49.00
2022-09-26T07:50:46.229Z,49.00
2022-09-26T07:54:00.094Z,49.00
2022-09-26T07:57:20.715Z,49.10
2022-09-26T08:00:31.345Z,49.20
2022-09-26T08:03:42.135Z,49.00
2022-09-26T08:06:56.497Z,48.80
2022-09-26T08:09:59.027Z,48.80
2022-09-26T08:13:19.824Z,48.80
2022-09-26T08:16:41.552Z,48.80
2022-09-26T08:19:43.766Z,48.80
2022-09-26T08:22:45.507Z,48.90
2022-09-26T08:25:49.070Z,48.90
2022-09-26T08:29:11.165Z,49.00
2022-09-26T08:32:13.379Z,49.00
2022-09-26T08:35:15.227Z,49.10
2022-09-26T08:38:36.118Z,49.10
2022-09-26T08:42:13.681Z,49.10
2022-09-26T08:46:38.904Z,49.20
2022-09-26T08:50:32.683Z,49.20
2022-09-26T08:53:52.058Z,49.20
2022-09-26T08:56:58.946Z,49.10
2022-09-26T09:00:24.212Z,49.30
2022-09-26T09:03:36.655Z,49.30
2022-09-26T09:06:41.271Z,49.20
2022-09-26T09:09:43.030Z,49.30
2022-09-26T09:13:30.566Z,49.30
2022-09-26T09:17:22.388Z,49.30
2022-09-26T09:21:05.498Z,49.30
2022-09-26T09:24:34.427Z,49.30
2022-09-26T09:28:08.131Z,49.30
2022-09-26T09:31:15.154Z,49.20
2022-09-26T09:34:50.140Z,49.20
2022-09-26T09:38:25.123Z,49.20
2022-09-26T09:41:50.162Z,49.20
2022-09-26T09:45:04.574Z,49.20
2022-09-26T09:48:13.147Z,49.30
2022-09-26T09:51:25.184Z,49.40
2022-09-26T09:55:11.526Z,49.30
2022-09-26T09:58:48.752Z,49.30
2022-09-26T10:02:13.323Z,49.30
2022-09-26T10:05:36.700Z,49.30
2022-09-26T10:08:40.946Z,49.30
2022-09-26T10:11:43.136Z,49.30
2022-09-26T10:15:27.147Z,49.30
2022-09-26T10:19:08.026Z,49.30
2022-09-26T10:22:24.100Z,49.30
2022-09-26T10:25:26.278Z,49.30
2022-09-26T10:28:31.349Z,49.30
2022-09-26T10:31:43.143Z,49.30
2022-09-26T10:35:20.756Z,49.30
2022-09-26T10:38:27.283Z,49.30
2022-09-26T10:41:47.397Z,49.30
2022-09-26T10:44:50.683Z,49.30
2022-09-26T10:47:59.260Z,49.30
2022-09-26T10:51:44.829Z,49.20
2022-09-26T10:55:11.404Z,49.20
2022-09-26T10:58:24.005Z,49.20
2022-09-26T11:01:31.291Z,49.20
2022-09-26T11:04:53.835Z,49.10
2022-09-26T11:08:30.779Z,49.20
2022-09-26T11:11:55.297Z,49.10
2022-09-26T11:15:05.470Z,49.20
2022-09-26T11:18:17.863Z,49.20
2022-09-26T11:21:37.704Z,49.20
2022-09-26T11:36:18.436Z,49.20
2022-09-26T11:39:58.252Z,49.80
2022-09-26T11:43:14.059Z,49.20
2022-09-26T11:46:46.199Z,49.20
2022-09-26T11:50:10.902Z,49.20
2022-09-26T11:54:10.078Z,49.20
2022-09-26T11:57:38.389Z,49.10
2022-09-26T12:00:48.850Z,49.20
2022-09-26T12:04:12.177Z,49.10
2022-09-26T12:07:47.946Z,49.10
2022-09-26T12:11:16.513Z,49.10
2022-09-26T12:14:27.149Z,49.20
2022-09-26T12:17:45.936Z,49.10
2022-09-26T12:21:15.618Z,49.20
2022-09-26T12:24:34.092Z,49.20
2022-09-26T12:27:49.647Z,49.40
2022-09-26T12:31:00.701Z,49.30
2022-09-26T12:34:28.387Z,49.30
2022-09-26T12:37:41.030Z,49.30
2022-09-26T12:40:55.599Z,49.20
2022-09-26T12:44:33.938Z,49.20
2022-09-26T12:47:50.003Z,49.10
2022-09-26T12:51:04.351Z,49.10
2022-09-26T12:54:35.098Z,49.10
2022-09-26T12:58:09.384Z,48.90
2022-09-26T13:01:47.542Z,48.90
2022-09-26T13:05:07.835Z,49.00
2022-09-26T13:08:19.094Z,48.90
2022-09-26T13:11:37.155Z,49.00
2022-09-26T13:14:39.462Z,48.90
2022-09-26T13:17:47.026Z,48.90
2022-09-26T13:20:55.129Z,48.90
2022-09-26T13:24:01.127Z,48.90
2022-09-26T13:27:17.844Z,48.90
2022-09-26T13:30:28.072Z,49.00
2022-09-26T13:33:39.613Z,48.90
2022-09-26T13:36:43.284Z,49.00
2022-09-26T13:39:53.807Z,48.90
2022-09-26T13:43:07.386Z,48.90
2022-09-26T13:46:51.203Z,48.80
2022-09-26T13:50:03.040Z,48.80
2022-09-26T13:53:36.348Z,49.30
2022-09-26T13:56:38.252Z,48.80
2022-09-26T14:00:30.117Z,48.80
2022-09-26T14:03:38.059Z,48.70
2022-09-26T14:07:28.457Z,48.80
2022-09-26T14:10:42.244Z,48.70
2022-09-26T14:13:44.254Z,48.70
2022-09-26T14:16:52.887Z,48.70
2022-09-26T14:19:58.099Z,48.70
2022-09-26T14:23:01.858Z,48.70
2022-09-26T14:26:27.232Z,48.70
2022-09-26T14:29:29.260Z,48.70
2022-09-26T14:32:43.595Z,48.70
2022-09-26T14:35:45.330Z,48.80
2022-09-26T14:38:48.471Z,48.70
2022-09-26T14:41:50.866Z,48.70
2022-09-26T14:45:08.305Z,48.70
2022-09-26T14:48:32.087Z,48.80
2022-09-26T14:51:37.730Z,48.80
2022-09-26T14:54:40.794Z,48.80
2022-09-26T14:57:42.742Z,48.70
2022-09-26T15:00:48.224Z,48.80
2022-09-26T15:03:57.622Z,48.90
2022-09-26T15:07:06.033Z,49.00
2022-09-26T15:10:26.629Z,48.80
2022-09-26T15:13:45.707Z,48.90
2022-09-26T15:16:53.226Z,48.90
2022-09-26T15:19:57.531Z,48.80
2022-09-26T15:23:01.183Z,48.90
2022-09-26T15:26:03.255Z,48.90
2022-09-26T15:29:07.655Z,48.90
2022-09-26T15:32:19.902Z,48.80
2022-09-26T15:35:22.006Z,48.80
2022-09-26T15:38:24.643Z,48.90
2022-09-26T15:41:45.560Z,48.90
2022-09-26T15:44:58.841Z,48.90
2022-09-26T15:48:19.887Z,48.80
2022-09-26T15:51:38.080Z,48.80
2022-09-26T15:54:39.993Z,48.90
2022-09-26T15:57:43.254Z,48.90
2022-09-26T16:00:50.368Z,48.90
2022-09-26T16:04:04.328Z,48.90
2022-09-26T16:07:20.743Z,48.90
2022-09-26T16:10:29.564Z,48.90
2022-09-26T16:13:37.046Z,48.90
2022-09-26T16:16:40.099Z,48.90
2022-09-26T16:20:02.169Z,49.00
2022-09-26T16:23:05.594Z,49.00
2022-09-26T16:26:40.042Z,49.00
2022-09-26T16:29:41.809Z,49.00
2022-09-26T16:32:43.835Z,49.00
2022-09-26T16:35:47.670Z,49.00
2022-09-26T16:39:01.603Z,49.00
2022-09-26T16:42:12.910Z,49.00
2022-09-26T16:45:15.118Z,49.10
2022-09-26T16:48:50.940Z,49.10
2022-09-26T16:52:32.163Z,49.00
2022-09-26T16:55:36.281Z,49.20
2022-09-26T16:58:38.133Z,49.10
2022-09-26T17:01:55.201Z,49.10
2022-09-26T17:04:57.042Z,49.10
2022-09-26T17:07:58.859Z,49.10
2022-09-26T17:11:02.852Z,49.20
2022-09-26T17:14:04.778Z,49.80
2022-09-26T17:17:13.924Z,49.10
2022-09-26T17:20:15.840Z,49.10
2022-09-26T17:23:38.682Z,49.10
2022-09-26T17:26:43.550Z,49.10
2022-09-26T17:29:49.588Z,49.00
2022-09-26T17:32:53.376Z,49.00
2022-09-26T17:35:55.882Z,49.10
2022-09-26T17:39:02.392Z,49.00
2022-09-26T17:42:04.229Z,49.20
2022-09-26T17:45:06.835Z,49.20
2022-09-26T17:48:15.501Z,49.20
2022-09-26T17:51:17.819Z,49.10
2022-09-26T17:54:31.301Z,49.20
2022-09-26T17:57:38.176Z,49.10
2022-09-26T18:00:41.021Z,49.20
2022-09-26T18:03:42.880Z,49.40
2022-09-26T18:06:45.131Z,49.40
2022-09-26T18:09:46.894Z,49.30
2022-09-26T18:12:58.732Z,49.50
2022-09-26T18:16:01.590Z,49.60
2022-09-26T18:19:07.613Z,49.40
2022-09-26T18:22:19.077Z,49.50
2022-09-26T18:25:24.341Z,49.50
2022-09-26T18:28:26.378Z,49.60
2022-09-26T18:31:32.997Z,49.60
2022-09-26T18:34:34.897Z,49.60
2022-09-26T18:37:36.678Z,49.60
2022-09-26T18:40:44.657Z,49.60
2022-09-26T18:43:52.173Z,49.50
2022-09-26T18:46:59.529Z,49.60
2022-09-26T18:50:05.017Z,49.60
2022-09-26T18:53:14.747Z,49.60
2022-09-26T18:56:34.930Z,49.60
2022-09-26T18:59:36.684Z,49.50
2022-09-26T19:02:40.535Z,49.60
2022-09-26T19:05:42.447Z,49.60
2022-09-26T19:08:50.897Z,49.70
2022-09-26T19:11:53.270Z,49.60
2022-09-26T19:14:55.065Z,49.60
2022-09-26T19:17:57.068Z,49.60
2022-09-26T19:20:59.316Z,49.70
2022-09-26T19:24:20.640Z,49.70
2022-09-26T19:27:31.073Z,49.70
2022-09-26T19:30:33.034Z,49.60
2022-09-26T19:33:34.898Z,49.60
2022-09-26T19:36:36.667Z,49.70
2022-09-26T19:39:38.483Z,49.70
2022-09-26T19:42:40.326Z,49.60
2022-09-26T19:45:43.219Z,49.70
2022-09-26T19:48:45.027Z,49.70
2022-09-26T19:51:47.329Z,49.60
2022-09-26T19:54:49.436Z,49.60
2022-09-26T19:57:52.570Z,49.60
2022-09-26T20:00:56.699Z,49.70
2022-09-26T20:03:59.040Z,49.70
2022-09-26T20:07:00.887Z,49.70
2022-09-26T20:10:05.420Z,49.70
2022-09-26T20:13:07.263Z,49.80
2022-09-26T20:16:10.844Z,49.80
2022-09-26T20:19:20.067Z,49.70
2022-09-26T20:22:22.755Z,49.70
2022-09-26T20:25:26.961Z,49.80
2022-09-26T20:28:29.158Z,49.70
2022-09-26T20:31:30.938Z,49.80
2022-09-26T20:34:32.702Z,49.70
2022-09-26T20:37:39.256Z,49.60
2022-09-26T20:40:41.280Z,49.80
2022-09-26T20:43:47.759Z,49.70
2022-09-26T20:46:52.327Z,49.70
2022-09-26T20:49:58.609Z,49.80
2022-09-26T20:53:00.342Z,49.70
2022-09-26T20:56:03.834Z,49.60
2022-09-26T20:59:06.589Z,49.60
2022-09-26T21:02:22.940Z,49.60
2022-09-26T21:05:28.920Z,50.20
2022-09-26T21:08:30.784Z,49.60
2022-09-26T21:11:32.565Z,49.60
2022-09-26T21:14:34.334Z,49.60
2022-09-26T21:17:36.127Z,49.60
2022-09-26T21:20:38.031Z,49.60
2022-09-26T21:24:01.924Z,49.50
2022-09-26T21:27:03.796Z,49.60
2022-09-26T21:30:05.861Z,49.60
2022-09-26T21:33:13.294Z,49.60
2022-09-26T21:36:15.396Z,49.60
2022-09-26T21:39:18.983Z,49.60
2022-09-26T21:42:20.747Z,49.60
2022-09-26T21:45:27.244Z,49.60
2022-09-26T21:48:29.224Z,49.60
2022-09-26T21:51:31.708Z,49.60
2022-09-26T21:54:38.418Z,49.60
2022-09-26T21:57:44.684Z,49.60
2022-09-26T22:00:46.430Z,49.60
2022-09-26T22:03:48.324Z,49.60
2022-09-26T22:06:50.067Z,49.60
2022-09-26T22:09:51.886Z,49.50
2022-09-26T22:12:56.844Z,49.60
2022-09-26T22:16:05.496Z,49.60
2022-09-26T22:19:07.407Z,49.60
2022-09-26T22:22:09.412Z,49.50
2022-09-26T22:25:11.293Z,49.50
2022-09-26T22:28:13.047Z,49.50
2022-09-26T22:31:15.435Z,49.50
2022-09-26T22:34:17.272Z,49.50
2022-09-26T22:37:19.057Z,49.50
2022-09-26T22:40:20.941Z,49.50
2022-09-26T22:43:23.081Z,49.50
2022-09-26T22:46:24.880Z,50.10
2022-09-26T22:49:26.712Z,49.50
2022-09-26T22:52:28.476Z,49.50
2022-09-26T22:55:30.241Z,49.50
2022-09-26T22:58:38.711Z,49.50
2022-09-26T23:01:40.576Z,49.50
2022-09-26T23:04:48.261Z,49.50
2022-09-26T23:07:53.792Z,49.40
2022-09-26T23:10:56.467Z,49.50
2022-09-26T23:13:58.300Z,49.40
2022-09-26T23:17:00.282Z,49.40
2022-09-26T23:20:02.417Z,49.40
2022-09-26T23:23:04.210Z,49.50
2022-09-26T23:26:07.367Z,49.40
2022-09-26T23:29:09.484Z,49.40
2022-09-26T23:32:11.248Z,49.40
2022-09-26T23:35:14.670Z,49.40
2022-09-26T23:38:16.482Z,49.40
2022-09-26T23:41:18.481Z,49.40
2022-09-26T23:44:20.303Z,49.30
2022-09-26T23:47:22.063Z,49.40
2022-09-26T23:50:23.906Z,49.40
2022-09-26T23:53:25.762Z,49.30
2022-09-26T23:56:28.010Z,49.40
2022-09-26T23:59:29.799Z,49.40
